Time;durP1;ratioP1;P1;durP2;ratioP2;P2;SDS_P1;SDS_P2;PMS_P1;PMS_P2;Temp;Humidity;BMP_temperature;BMP_pressure;BME280_temperature;BME280_humidity;BME280_pressure;Samples;Min_cycle;Max_cycle;Signal;HPM_P1;HPM_P2
2021/04/24 00:02:11;;;;;;;0.20;0.10;;;;;;;21.22;nan;101722.16;5054709;28;20049;-66
2021/04/24 00:04:38;;;;;;;1.08;0.20;;;;;;;21.26;nan;101720.81;5054798;28;20028;-67
2021/04/24 00:07:03;;;;;;;0.88;0.20;;;;;;;21.28;nan;101718.75;5036580;28;20021;-66
2021/04/24 00:09:29;;;;;;;0.08;0.00;;;;;;;21.30;nan;101727.66;5054597;28;20067;-66
2021/04/24 00:11:54;;;;;;;0.05;0.00;;;;;;;21.30;nan;101713.97;5054785;28;20029;-66
2021/04/24 00:14:20;;;;;;;0.50;0.10;;;;;;;21.37;nan;101721.50;5054507;28;20021;-65
2021/04/24 00:16:45;;;;;;;0.20;0.00;;;;;;;21.39;nan;101724.94;5054693;28;20021;-67
2021/04/24 00:19:11;;;;;;;0.55;0.20;;;;;;;21.41;nan;101723.72;5054475;28;20017;-66
2021/04/24 00:21:36;;;;;;;0.03;0.03;;;;;;;21.42;nan;101724.59;5054575;28;20429;-65
2021/04/24 00:24:01;;;;;;;0.45;0.10;;;;;;;21.43;nan;101715.34;5054503;28;20423;-67
2021/04/24 00:26:27;;;;;;;0.15;0.10;;;;;;;21.43;nan;101723.56;5054278;28;20029;-66
2021/04/24 00:28:53;;;;;;;0.40;0.10;;;;;;;21.42;nan;101730.06;5054317;28;20104;-67
2021/04/24 00:31:18;;;;;;;0.52;0.20;;;;;;;21.41;nan;101728.34;5054055;28;20108;-65
2021/04/24 00:33:44;;;;;;;0.15;0.13;;;;;;;21.42;nan;101732.78;5054351;28;20456;-67
2021/04/24 00:36:09;;;;;;;1.35;0.20;;;;;;;21.43;nan;101726.28;5054133;28;20399;-66
2021/04/24 00:38:35;;;;;;;0.25;0.10;;;;;;;21.47;nan;101731.25;5054094;28;20021;-67
2021/04/24 00:41:01;;;;;;;0.10;0.08;;;;;;;21.48;nan;101732.09;5036298;28;20354;-67
2021/04/24 00:43:26;;;;;;;0.30;0.10;;;;;;;21.49;nan;101725.59;5053813;28;20051;-67
2021/04/24 00:45:51;;;;;;;0.10;0.10;;;;;;;21.47;nan;101720.28;5054157;28;20037;-68
2021/04/24 00:48:17;;;;;;;0.60;0.05;;;;;;;21.50;nan;101730.03;5053567;28;20021;-66
2021/04/24 00:50:42;;;;;;;0.20;0.05;;;;;;;21.50;nan;101732.78;5054260;28;20056;-67
2021/04/24 00:53:11;;;;;;;0.32;0.10;;;;;;;21.51;nan;101723.56;5054145;28;20031;-65
2021/04/24 00:55:37;;;;;;;0.65;0.08;;;;;;;21.52;nan;101730.75;5053614;28;20045;-67
2021/04/24 00:58:04;;;;;;;0.80;0.10;;;;;;;21.52;nan;101733.50;5053688;28;20039;-66
2021/04/24 01:00:30;;;;;;;0.20;0.10;;;;;;;21.47;nan;101728.50;5053395;28;20033;-66
2021/04/24 01:02:57;;;;;;;0.50;0.10;;;;;;;21.51;nan;101729.03;5053349;28;20032;-66
2021/04/24 01:05:29;;;;;;;0.40;0.13;;;;;;;21.54;nan;101742.38;5053396;28;20028;-67
2021/04/24 01:07:54;;;;;;;0.00;0.00;;;;;;;21.52;nan;101736.22;5053717;28;20032;-67
2021/04/24 01:10:21;;;;;;;0.98;0.13;;;;;;;21.52;nan;101736.22;5053382;28;20025;-67
2021/04/24 01:12:48;;;;;;;0.63;0.40;;;;;;;21.56;nan;101748.53;5035695;28;20024;-67
2021/04/24 01:15:15;;;;;;;0.00;0.00;;;;;;;21.54;nan;101739.63;5053301;28;20020;-66
2021/04/24 01:17:41;;;;;;;0.52;0.10;;;;;;;21.55;nan;101749.56;5053501;28;20025;-66
2021/04/24 01:20:08;;;;;;;1.20;0.20;;;;;;;21.54;nan;101745.13;5035465;28;20028;-66
2021/04/24 01:22:34;;;;;;;0.20;0.03;;;;;;;21.55;nan;101741.34;5053231;28;20033;-66
2021/04/24 01:25:00;;;;;;;0.20;0.10;;;;;;;21.56;nan;101743.06;5053298;28;20040;-67
2021/04/24 01:27:25;;;;;;;0.85;0.20;;;;;;;21.48;nan;101737.56;5052965;28;20025;-66
2021/04/24 01:29:51;;;;;;;0.50;0.13;;;;;;;21.54;nan;101756.91;5053246;28;20068;-67
2021/04/24 01:32:16;;;;;;;0.08;0.00;;;;;;;21.56;nan;101754.00;5052971;28;20127;-66
2021/04/24 01:34:41;;;;;;;0.10;0.03;;;;;;;21.54;nan;101745.97;5053151;28;20071;-68
2021/04/24 01:37:07;;;;;;;0.30;0.10;;;;;;;21.54;nan;101747.84;5052977;28;20036;-66
2021/04/24 01:39:32;;;;;;;0.10;0.03;;;;;;;21.53;nan;101748.88;5053024;28;20025;-66
2021/04/24 01:41:58;;;;;;;0.20;0.10;;;;;;;21.50;nan;101743.72;5053107;28;20029;-67
2021/04/24 01:44:25;;;;;;;0.57;0.10;;;;;;;21.53;nan;101748.88;5052750;28;20529;-67
2021/04/24 01:46:50;;;;;;;0.20;0.10;;;;;;;21.52;nan;101741.69;5053040;28;20025;-67
2021/04/24 01:49:16;;;;;;;0.38;0.10;;;;;;;21.54;nan;101754.19;5052627;28;20522;-65
2021/04/24 01:51:42;;;;;;;0.20;0.00;;;;;;;21.54;nan;101756.06;5052972;28;20104;-66
2021/04/24 01:54:08;;;;;;;0.85;0.25;;;;;;;21.52;nan;101748.03;5052774;28;20036;-66
2021/04/24 01:56:45;;;;;;;0.08;0.00;;;;;;;21.56;nan;101754.00;5052343;28;20071;-67
2021/04/24 01:59:10;;;;;;;0.22;0.03;;;;;;;21.53;nan;101748.88;5034597;28;20424;-65
2021/04/24 02:01:35;;;;;;;0.65;0.10;;;;;;;21.54;nan;101745.13;5052622;28;20060;-66
2021/04/24 02:04:01;;;;;;;0.80;0.10;;;;;;;21.57;nan;101751.09;5052681;28;20040;-66
2021/04/24 02:06:26;;;;;;;0.25;0.00;;;;;;;21.54;nan;101745.97;5052448;28;20075;-67
2021/04/24 02:08:51;;;;;;;0.10;0.00;;;;;;;21.54;nan;101753.31;5052283;28;20017;-67
2021/04/24 02:11:17;;;;;;;1.02;0.10;;;;;;;21.51;nan;101745.47;5052350;28;20035;-67
2021/04/24 02:13:43;;;;;;;0.35;0.10;;;;;;;21.49;nan;101742.00;5052510;28;20031;-68
2021/04/24 02:16:10;;;;;;;0.10;0.00;;;;;;;21.49;nan;101742.00;5051527;28;20036;-67
2021/04/24 02:18:36;;;;;;;0.08;0.05;;;;;;;21.49;nan;101752.97;5052410;28;20024;-67
2021/04/24 02:21:02;;;;;;;0.20;0.00;;;;;;;21.50;nan;101743.72;5052447;28;20391;-67
2021/04/24 02:23:32;;;;;;;0.75;0.10;;;;;;;21.52;nan;101741.69;5052152;28;20029;-68
2021/04/24 02:25:57;;;;;;;0.35;0.00;;;;;;;21.53;nan;101748.88;5052432;28;20021;-66
2021/04/24 02:28:22;;;;;;;0.43;0.20;;;;;;;21.53;nan;101751.63;5051960;28;20464;-67
2021/04/24 02:30:48;;;;;;;0.13;0.00;;;;;;;21.52;nan;101747.16;5052383;28;20027;-68
2021/04/24 02:33:13;;;;;;;0.70;0.10;;;;;;;21.51;nan;101750.94;5052062;28;20140;-67
2021/04/24 02:35:48;;;;;;;0.13;0.00;;;;;;;21.52;nan;101747.16;5052219;28;20032;-67
2021/04/24 02:38:30;;;;;;;0.00;0.00;;;;;;;21.52;nan;101747.16;5052050;28;20480;-66
2021/04/24 02:40:58;;;;;;;0.73;0.10;;;;;;;21.53;nan;101748.88;5052540;28;20067;-67
2021/04/24 02:43:24;;;;;;;0.15;0.00;;;;;;;21.54;nan;101747.84;5051930;28;20117;-67
2021/04/24 02:45:49;;;;;;;0.20;0.17;;;;;;;21.52;nan;101748.03;5052255;28;20104;-67
2021/04/24 02:48:15;;;;;;;0.05;0.00;;;;;;;21.49;nan;101737.41;5051878;28;20017;-66
2021/04/24 02:50:42;;;;;;;1.05;0.10;;;;;;;21.54;nan;101750.59;5052159;28;20044;-66
2021/04/24 02:53:07;;;;;;;0.65;0.20;;;;;;;21.53;nan;101743.41;5051936;28;20025;-66
2021/04/24 02:55:33;;;;;;;0.10;0.10;;;;;;;21.53;nan;101746.16;5051750;28;20045;-67
2021/04/24 02:57:58;;;;;;;0.20;0.05;;;;;;;21.50;nan;101744.59;5052066;28;20025;-67
2021/04/24 03:00:24;;;;;;;0.47;0.10;;;;;;;21.52;nan;101753.50;5052051;28;20021;-67
2021/04/24 03:03:19;;;;;;;0.25;0.10;;;;;;;21.53;nan;101749.72;5052053;28;20063;-66
2021/04/24 03:05:44;;;;;;;0.03;0.03;;;;;;;21.48;nan;101740.31;4970858;28;20102;-67
2021/04/24 03:08:11;;;;;;;0.20;0.00;;;;;;;21.52;nan;101753.50;4970800;28;20454;-67
2021/04/24 03:10:38;;;;;;;0.50;0.05;;;;;;;21.49;nan;101748.34;4954599;28;20042;-67
2021/04/24 03:13:05;;;;;;;0.22;0.10;;;;;;;21.52;nan;101753.50;4970844;28;20099;-67
2021/04/24 03:15:31;;;;;;;0.40;0.10;;;;;;;21.50;nan;101750.06;4954529;28;20035;-66
2021/04/24 03:17:56;;;;;;;0.68;0.00;;;;;;;21.51;nan;101759.13;4970862;28;20057;-67
2021/04/24 03:20:22;;;;;;;0.73;0.25;;;;;;;21.50;nan;101752.81;4970613;28;20054;-67
2021/04/24 03:22:48;;;;;;;0.22;0.08;;;;;;;21.45;nan;101737.91;4970867;28;20043;-66
2021/04/24 03:25:14;;;;;;;0.68;0.17;;;;;;;21.50;nan;101749.19;4970451;28;20114;-66
2021/04/24 03:27:40;;;;;;;0.17;0.00;;;;;;;21.49;nan;101750.22;4973270;28;20027;-68
2021/04/24 03:30:08;;;;;;;0.40;0.15;;;;;;;21.52;nan;101752.63;4974242;28;20340;-67
2021/04/24 03:32:33;;;;;;;0.98;0.10;;;;;;;21.51;nan;101750.94;4974316;28;20034;-67
2021/04/24 03:34:59;;;;;;;0.20;0.10;;;;;;;21.48;nan;101756.72;4974230;28;20588;-68
2021/04/24 03:37:24;;;;;;;0.30;0.10;;;;;;;21.51;nan;101756.41;4974052;28;20441;-67
2021/04/24 03:39:49;;;;;;;0.75;0.20;;;;;;;21.49;nan;101747.47;4974186;28;20222;-66
2021/04/24 03:42:14;;;;;;;0.40;0.00;;;;;;;21.50;nan;101760.13;5018261;28;20045;-66
2021/04/24 03:44:41;;;;;;;0.38;0.10;;;;;;;21.49;nan;101753.81;5055291;28;20021;-66
2021/04/24 03:47:06;;;;;;;1.10;0.15;;;;;;;21.50;nan;101763.75;5037230;28;20032;-66
2021/04/24 03:49:32;;;;;;;0.57;0.10;;;;;;;21.49;nan;101766.63;5055237;28;20029;-66
2021/04/24 03:51:57;;;;;;;0.70;0.10;;;;;;;21.49;nan;101761.16;5055117;28;20376;-67
2021/04/24 03:54:22;;;;;;;0.55;0.10;;;;;;;21.50;nan;101762.88;5054757;28;20031;-65
2021/04/24 03:56:48;;;;;;;0.30;0.10;;;;;;;21.50;nan;101771.09;5036802;28;20053;-66
2021/04/24 03:59:13;;;;;;;1.05;0.10;;;;;;;21.50;nan;101765.59;5054732;28;20021;-66
2021/04/24 04:01:38;;;;;;;0.40;0.10;;;;;;;22.00;nan;101761.81;5054746;28;20375;-67
2021/04/24 04:04:04;;;;;;;0.25;0.10;;;;;;;23.08;nan;101758.41;5054907;28;20029;-67
2021/04/24 04:06:29;;;;;;;0.35;0.20;;;;;;;23.33;nan;101748.13;5054372;28;20061;-67
2021/04/24 04:08:54;;;;;;;0.35;0.10;;;;;;;23.20;nan;101750.63;5054780;28;20029;-65
2021/04/24 04:11:20;;;;;;;0.20;0.10;;;;;;;22.74;nan;101760.63;5054501;28;20025;-65
2021/04/24 04:13:45;;;;;;;0.00;0.00;;;;;;;22.61;nan;101752.97;5054772;28;20033;-65
2021/04/24 04:16:10;;;;;;;0.95;0.10;;;;;;;22.65;nan;101756.19;5054556;28;20100;-66
2021/04/24 04:18:36;;;;;;;0.08;0.03;;;;;;;22.72;nan;101762.69;5054490;28;20064;-66
2021/04/24 04:21:03;;;;;;;0.28;0.10;;;;;;;22.69;nan;101757.56;5036670;28;20476;-66
2021/04/24 04:23:29;;;;;;;0.50;0.10;;;;;;;22.60;nan;101764.09;5054348;28;20032;-65
2021/04/24 04:25:55;;;;;;;0.35;0.00;;;;;;;22.68;nan;101761.34;5054787;28;20028;-66
2021/04/24 04:28:21;;;;;;;0.10;0.10;;;;;;;22.73;nan;101764.41;5036127;28;20029;-65
2021/04/24 04:30:48;;;;;;;0.10;0.10;;;;;;;22.72;nan;101765.44;5054472;28;20184;-66
2021/04/24 04:33:13;;;;;;;1.17;0.10;;;;;;;22.66;nan;101760.66;5054092;28;20017;-67
2021/04/24 04:35:40;;;;;;;0.38;0.00;;;;;;;22.68;nan;101756.72;5054342;28;20490;-64
2021/04/24 04:38:06;;;;;;;0.75;0.38;;;;;;;22.69;nan;101758.44;5053252;28;20020;-66
2021/04/24 04:40:31;;;;;;;0.63;0.10;;;;;;;22.75;nan;101759.59;5036535;28;20059;-65
2021/04/24 04:42:57;;;;;;;0.35;0.10;;;;;;;22.66;nan;101763.38;5054233;28;20037;-65
2021/04/24 04:45:23;;;;;;;0.10;0.03;;;;;;;22.81;nan;101761.59;5053849;28;20021;-65
2021/04/24 04:47:48;;;;;;;0.55;0.10;;;;;;;22.61;nan;101761.19;5053920;28;20021;-65
2021/04/24 04:50:17;;;;;;;0.35;0.10;;;;;;;22.77;nan;101755.63;5053811;28;20083;-64
2021/04/24 04:52:43;;;;;;;0.40;0.10;;;;;;;22.77;nan;101766.59;5054010;28;20028;-67
2021/04/24 04:55:10;;;;;;;0.77;0.10;;;;;;;22.87;nan;101760.94;5053577;28;20027;-66
2021/04/24 04:57:36;;;;;;;0.57;0.10;;;;;;;22.76;nan;101759.41;5053796;28;20415;-65
2021/04/24 05:00:09;;;;;;;0.28;0.10;;;;;;;22.94;nan;101761.06;5053890;28;20017;-66
2021/04/24 05:02:34;;;;;;;0.28;0.10;;;;;;;22.84;nan;101755.78;5053708;28;20035;-65
2021/04/24 05:05:00;;;;;;;0.10;0.10;;;;;;;22.91;nan;101765.03;5053695;28;20017;-65
2021/04/24 05:07:25;;;;;;;0.32;0.10;;;;;;;22.88;nan;101757.16;5053516;28;20029;-65
2021/04/24 05:09:50;;;;;;;0.65;0.10;;;;;;;22.88;nan;101768.13;5053586;28;20102;-66
2021/04/24 05:12:15;;;;;;;0.40;0.20;;;;;;;22.71;nan;101745.41;5053385;28;20027;-66
2021/04/24 05:14:41;;;;;;;1.15;0.10;;;;;;;22.93;nan;101754.72;5053578;28;20020;-65
2021/04/24 05:17:06;;;;;;;0.08;0.00;;;;;;;22.61;nan;101749.38;5053407;28;20338;-65
2021/04/24 05:19:32;;;;;;;0.90;0.10;;;;;;;22.63;nan;101759.13;5053283;28;20395;-65
2021/04/24 05:21:57;;;;;;;0.43;0.00;;;;;;;22.89;nan;101764.34;5053505;28;20078;-66
2021/04/24 05:24:23;;;;;;;0.30;0.10;;;;;;;22.69;nan;101752.09;5053132;28;20024;-66
2021/04/24 05:26:49;;;;;;;0.70;0.20;;;;;;;22.97;nan;101756.06;5053391;28;20032;-65
2021/04/24 05:29:14;;;;;;;0.20;0.10;;;;;;;22.89;nan;101758.88;5052934;28;20021;-66
2021/04/24 05:31:39;;;;;;;0.55;0.10;;;;;;;22.68;nan;101750.38;5053154;28;20056;-66
2021/04/24 05:34:05;;;;;;;0.30;0.10;;;;;;;22.79;nan;101750.81;5053217;28;20135;-66
2021/04/24 05:36:30;;;;;;;0.08;0.08;;;;;;;23.02;nan;101764.63;5035290;28;20381;-66
2021/04/24 05:38:56;;;;;;;0.17;0.10;;;;;;;22.89;nan;101760.75;5053177;28;20099;-64
2021/04/24 05:41:22;;;;;;;0.65;0.20;;;;;;;23.00;nan;101755.69;5052718;28;20031;-65
2021/04/24 05:43:53;;;;;;;0.28;0.10;;;;;;;22.98;nan;101756.91;5053022;28;20033;-66
2021/04/24 05:46:20;;;;;;;0.40;0.00;;;;;;;22.77;nan;101749.28;5034844;28;20476;-65
2021/04/24 05:48:47;;;;;;;1.23;0.20;;;;;;;22.87;nan;101749.97;5052894;28;20033;-65
2021/04/24 05:51:12;;;;;;;0.32;0.10;;;;;;;22.71;nan;101750.03;5052523;28;20424;-66
2021/04/24 05:53:39;;;;;;;2.55;0.32;;;;;;;22.89;nan;101750.63;5052794;28;20056;-67
2021/04/24 05:56:04;;;;;;;0.55;0.10;;;;;;;22.92;nan;101753.03;5052688;28;20057;-67
2021/04/24 05:58:30;;;;;;;0.32;0.00;;;;;;;22.86;nan;101751.00;5034448;28;20504;-65
2021/04/24 06:00:55;;;;;;;0.30;0.00;;;;;;;22.93;nan;101760.22;5052727;28;20025;-66
2021/04/24 06:03:20;;;;;;;0.32;0.10;;;;;;;22.73;nan;101747.94;5052360;28;20040;-65
2021/04/24 06:05:45;;;;;;;0.60;0.20;;;;;;;22.90;nan;101754.25;5052708;28;20503;-65
2021/04/24 06:08:11;;;;;;;0.68;0.20;;;;;;;22.83;nan;101748.59;5052242;28;20062;-65
2021/04/24 06:10:36;;;;;;;0.10;0.00;;;;;;;23.06;nan;101749.50;5052527;28;20029;-65
2021/04/24 06:13:02;;;;;;;0.25;0.10;;;;;;;22.91;nan;101762.28;5052546;28;20031;-64
2021/04/24 06:15:27;;;;;;;0.30;0.10;;;;;;;22.93;nan;101757.47;5052372;28;20060;-66
2021/04/24 06:17:52;;;;;;;0.20;0.20;;;;;;;23.11;nan;101755.31;5052597;28;20021;-66
2021/04/24 06:20:18;;;;;;;0.20;0.10;;;;;;;22.96;nan;101751.63;5052273;28;20028;-67
2021/04/24 06:22:44;;;;;;;0.57;0.08;;;;;;;22.89;nan;101764.34;5052515;28;20087;-65
2021/04/24 06:25:13;;;;;;;0.10;0.10;;;;;;;22.92;nan;101757.66;5052261;28;20024;-66
2021/04/24 06:27:38;;;;;;;0.82;0.10;;;;;;;23.11;nan;101758.03;5052283;28;20107;-65
2021/04/24 06:30:06;;;;;;;0.20;0.10;;;;;;;23.00;nan;101758.44;5052321;28;20112;-65
2021/04/24 06:32:32;;;;;;;0.13;0.00;;;;;;;23.05;nan;101750.56;5034368;28;20111;-65
2021/04/24 06:34:57;;;;;;;0.65;0.10;;;;;;;23.23;nan;101749.41;5052421;28;20103;-66
2021/04/24 06:37:22;;;;;;;0.20;0.10;;;;;;;22.90;nan;101749.59;5034027;28;20483;-65
2021/04/24 06:39:48;;;;;;;0.40;0.40;;;;;;;23.01;nan;101741.00;5034442;28;20021;-67
2021/04/24 06:42:15;;;;;;;0.10;0.10;;;;;;;22.99;nan;101739.44;5052078;28;20112;-66
2021/04/24 06:44:40;;;;;;;0.10;0.10;;;;;;;22.97;nan;101734.13;5052210;28;20033;-67
2021/04/24 06:47:05;;;;;;;0.20;0.20;;;;;;;23.14;nan;101728.53;5052072;28;20062;-66
2021/04/24 06:49:30;;;;;;;0.75;0.22;;;;;;;23.17;nan;101740.00;5051918;28;20035;-65
2021/04/24 06:51:56;;;;;;;0.40;0.20;;;;;;;22.91;nan;101740.34;5052229;28;20040;-67
2021/04/24 06:54:21;;;;;;;0.30;0.10;;;;;;;23.15;nan;101738.47;5051777;28;20472;-66
2021/04/24 06:56:46;;;;;;;0.00;0.00;;;;;;;23.04;nan;101740.63;5052005;28;20159;-66
2021/04/24 06:59:12;;;;;;;0.80;0.15;;;;;;;23.26;nan;101760.00;5051903;28;20025;-64
2021/04/24 07:01:37;;;;;;;0.30;0.13;;;;;;;23.20;nan;101739.66;5053059;28;20376;-66
2021/04/24 07:04:03;;;;;;;0.10;0.00;;;;;;;23.21;nan;101746.84;5038131;28;20025;-65
2021/04/24 07:06:28;;;;;;;0.10;0.00;;;;;;;23.17;nan;101741.88;5056048;28;20028;-65
2021/04/24 07:08:54;;;;;;;0.20;0.10;;;;;;;23.19;nan;101739.84;5055970;28;20033;-65
2021/04/24 07:11:19;;;;;;;0.15;0.10;;;;;;;23.13;nan;101744.16;5038026;28;20044;-65
2021/04/24 07:13:45;;;;;;;0.20;0.10;;;;;;;23.16;nan;101748.41;5055867;28;20043;-65
2021/04/24 07:16:11;;;;;;;0.17;0.10;;;;;;;23.09;nan;101759.25;5055701;28;20021;-64
2021/04/24 07:18:38;;;;;;;0.20;0.00;;;;;;;23.21;nan;101756.97;5055742;28;20379;-65
2021/04/24 07:21:05;;;;;;;0.03;0.00;;;;;;;23.16;nan;101748.41;5037764;28;20466;-66
2021/04/24 07:23:31;;;;;;;0.73;0.13;;;;;;;22.95;nan;101752.66;5055536;28;20495;-65
2021/04/24 07:25:57;;;;;;;0.80;0.20;;;;;;;22.94;nan;101745.47;5055704;28;20066;-65
2021/04/24 07:28:23;;;;;;;0.10;0.10;;;;;;;23.27;nan;101750.75;5055282;28;20526;-65
2021/04/24 07:30:48;;;;;;;0.30;0.10;;;;;;;23.09;nan;101748.28;5055634;28;20104;-65
2021/04/24 07:33:13;;;;;;;0.40;0.10;;;;;;;23.16;nan;101759.38;5055300;28;20029;-64
2021/04/24 07:35:39;;;;;;;0.73;0.20;;;;;;;23.00;nan;101742.00;5055422;28;20029;-64
2021/04/24 07:38:04;;;;;;;0.73;0.20;;;;;;;23.08;nan;101755.66;5055367;28;20127;-65
2021/04/24 07:40:29;;;;;;;0.00;0.00;;;;;;;22.85;nan;101746.56;5055027;28;20043;-64
2021/04/24 07:42:55;;;;;;;0.38;0.10;;;;;;;23.03;nan;101749.88;5055418;28;20042;-65
2021/04/24 07:45:20;;;;;;;0.63;0.10;;;;;;;22.96;nan;101751.63;5054939;28;20033;-65
2021/04/24 07:47:46;;;;;;;0.65;0.20;;;;;;;22.90;nan;101755.09;5055359;28;20031;-66
2021/04/24 07:50:14;;;;;;;0.43;0.10;;;;;;;22.86;nan;101764.72;5054950;28;20031;-64
2021/04/24 07:52:39;;;;;;;0.98;0.10;;;;;;;22.81;nan;101750.63;5055152;28;20025;-65
2021/04/24 07:55:05;;;;;;;0.30;0.10;;;;;;;22.90;nan;101760.56;5054765;28;20499;-65
2021/04/24 07:57:30;;;;;;;0.15;0.10;;;;;;;23.10;nan;101761.81;5054868;28;20036;-65
2021/04/24 07:59:56;;;;;;;0.40;0.00;;;;;;;22.97;nan;101767.03;5055039;28;20027;-65
2021/04/24 08:02:21;;;;;;;0.10;0.00;;;;;;;23.11;nan;101769.00;5054693;28;20496;-66
2021/04/24 08:04:46;;;;;;;0.20;0.05;;;;;;;22.96;nan;101765.31;5054992;28;20396;-64
2021/04/24 08:07:12;;;;;;;0.95;0.10;;;;;;;22.89;nan;101764.34;5054354;28;20035;-64
2021/04/24 08:09:37;;;;;;;0.00;0.00;;;;;;;22.93;nan;101765.69;5054799;28;20120;-66
2021/04/24 08:12:04;;;;;;;0.05;0.00;;;;;;;22.90;nan;101771.53;5054626;28;20047;-65
2021/04/24 08:14:30;;;;;;;0.28;0.10;;;;;;;22.85;nan;101773.97;5053313;28;20043;-64
2021/04/24 08:16:55;;;;;;;1.23;0.17;;;;;;;22.93;nan;101773.06;5054761;28;20041;-65
2021/04/24 08:19:21;;;;;;;0.00;0.00;;;;;;;22.92;nan;101769.47;5054369;28;20028;-63
2021/04/24 08:21:46;;;;;;;0.35;0.15;;;;;;;23.03;nan;101776.44;5054634;28;20357;-65
2021/04/24 08:24:11;;;;;;;0.13;0.10;;;;;;;22.94;nan;101780.25;5054423;28;20032;-64
2021/04/24 08:26:37;;;;;;;0.40;0.30;;;;;;;23.27;nan;101789.16;5036565;28;20024;-64
2021/04/24 08:29:06;;;;;;;0.00;0.00;;;;;;;23.11;nan;101784.63;5036336;28;20464;-65
2021/04/24 08:31:32;;;;;;;0.43;0.00;;;;;;;23.18;nan;101779.25;5054295;28;20029;-65
2021/04/24 08:33:57;;;;;;;0.88;0.10;;;;;;;23.25;nan;101783.00;5054474;28;20468;-65
2021/04/24 08:36:23;;;;;;;0.08;0.00;;;;;;;23.16;nan;101792.28;5054118;28;20112;-64
2021/04/24 08:38:48;;;;;;;1.52;0.45;;;;;;;23.04;nan;101795.47;5054310;28;20111;-65
2021/04/24 08:41:13;;;;;;;0.10;0.00;;;;;;;22.94;nan;101800.31;5054053;28;20396;-65
2021/04/24 08:43:40;;;;;;;0.43;0.10;;;;;;;23.09;nan;101786.69;5054111;28;20028;-65
2021/04/24 08:46:06;;;;;;;0.60;0.20;;;;;;;23.08;nan;101787.72;5036241;28;20031;-65
2021/04/24 08:48:33;;;;;;;0.15;0.10;;;;;;;23.02;nan;101800.28;5053669;28;20443;-65
2021/04/24 08:51:00;;;;;;;0.52;0.08;;;;;;;23.02;nan;101789.31;5054111;28;20051;-66
2021/04/24 08:53:26;;;;;;;0.45;0.10;;;;;;;22.99;nan;101780.56;5053790;28;20027;-65
2021/04/24 08:55:52;;;;;;;0.20;0.10;;;;;;;23.29;nan;101795.31;5053815;28;20078;-66
2021/04/24 08:58:17;;;;;;;0.63;0.10;;;;;;;23.25;nan;101808.53;5053699;28;20025;-64
2021/04/24 09:00:46;;;;;;;0.13;0.00;;;;;;;23.11;nan;101801.94;5054131;28;20023;-65
2021/04/24 09:03:16;;;;;;;0.60;0.10;;;;;;;23.03;nan;101810.22;5053654;28;20123;-64
2021/04/24 09:05:42;;;;;;;0.40;0.10;;;;;;;22.97;nan;101812.81;5053807;28;20486;-65
2021/04/24 09:08:09;;;;;;;0.17;0.10;;;;;;;23.07;nan;101810.72;5053734;28;20039;-64
2021/04/24 09:10:44;;;;;;;0.57;0.20;;;;;;;23.00;nan;101810.53;5053576;28;20463;-65
2021/04/24 09:13:15;;;;;;;1.30;0.00;;;;;;;22.97;nan;101813.66;5053484;28;20040;-65
2021/04/24 09:15:41;;;;;;;0.38;0.17;;;;;;;23.27;nan;101816.59;5053595;28;20029;-64
2021/04/24 09:18:08;;;;;;;0.70;0.20;;;;;;;23.02;nan;101808.50;5053523;28;20025;-64
2021/04/24 09:21:03;;;;;;;0.08;0.00;;;;;;;23.09;nan;101814.97;5053444;28;20021;-65
2021/04/24 09:23:32;;;;;;;;;;;;;;;23.10;nan;101804.84;5053866;28;20025;-65
2021/04/24 09:26:07;;;;;;;0.08;0.00;;;;;;;22.96;nan;101811.94;5052979;28;19917;-65
2021/04/24 09:28:35;;;;;;;0.20;0.10;;;;;;;23.04;nan;101813.81;5053099;28;20036;-65
2021/04/24 09:31:13;;;;;;;0.25;0.10;;;;;;;23.14;nan;101816.31;5053215;28;20384;-64
2021/04/24 09:33:39;;;;;;;0.00;0.00;;;;;;;22.94;nan;101818.66;5053109;28;20029;-64
2021/04/24 09:36:09;;;;;;;0.65;0.10;;;;;;;22.97;nan;101813.66;5053067;28;20028;-65
2021/04/24 09:38:41;;;;;;;0.28;0.00;;;;;;;23.07;nan;101818.94;5053342;28;20432;-65
2021/04/24 09:41:18;;;;;;;0.60;0.10;;;;;;;23.28;nan;101823.78;5053035;28;20124;-65
2021/04/24 09:44:02;;;;;;;0.28;0.10;;;;;;;23.00;nan;101816.03;5053022;28;20047;-65
2021/04/24 09:46:49;;;;;;;0.52;0.20;;;;;;;22.99;nan;101824.44;5052809;28;20483;-65
2021/04/24 09:49:27;;;;;;;0.60;0.20;;;;;;;22.94;nan;101827.72;5052677;28;20040;-65
2021/04/24 09:52:04;;;;;;;0.70;0.15;;;;;;;23.00;nan;101827.00;5052971;28;20108;-64
2021/04/24 09:54:33;;;;;;;0.75;0.03;;;;;;;23.17;nan;101821.44;5052774;28;20067;-67
2021/04/24 09:57:02;;;;;;;0.55;0.10;;;;;;;22.98;nan;101829.06;5034791;28;20405;-66
2021/04/24 09:59:27;;;;;;;0.68;0.10;;;;;;;23.14;nan;101827.28;5052405;28;20163;-65
2021/04/24 10:02:11;;;;;;;0.65;0.10;;;;;;;23.09;nan;101828.69;5052711;28;20120;-64
2021/04/24 10:04:36;;;;;;;0.40;0.10;;;;;;;23.22;nan;101824.50;5052674;28;20494;-65
2021/04/24 10:07:01;;;;;;;0.20;0.20;;;;;;;23.00;nan;101832.50;5052656;28;20040;-65
2021/04/24 10:09:29;;;;;;;0.40;0.40;;;;;;;23.09;nan;101836.91;5052309;28;20021;-65
2021/04/24 10:12:01;;;;;;;0.32;0.10;;;;;;;22.94;nan;101841.44;5034808;28;20017;-64
2021/04/24 10:14:37;;;;;;;0.08;0.08;;;;;;;22.99;nan;101836.25;5052389;28;20043;-65
2021/04/24 10:17:05;;;;;;;0.77;0.17;;;;;;;23.01;nan;101838.81;5052404;28;20028;-65
2021/04/24 10:19:32;;;;;;;0.28;0.10;;;;;;;23.00;nan;101832.50;5052316;28;20025;-65
2021/04/24 10:21:58;;;;;;;0.57;0.15;;;;;;;23.00;nan;101837.13;5052559;28;20020;-65
2021/04/24 10:24:25;;;;;;;0.98;0.10;;;;;;;23.02;nan;101835.94;5052441;28;20036;-64
2021/04/24 10:26:52;;;;;;;1.20;0.20;;;;;;;23.17;nan;101833.25;5052291;28;20074;-64
2021/04/24 10:29:19;;;;;;;0.30;0.10;;;;;;;23.14;nan;101835.50;5051973;28;20025;-65
2021/04/24 10:31:45;;;;;;;0.52;0.15;;;;;;;23.03;nan;101848.63;5052348;28;20031;-64
2021/04/24 10:34:11;;;;;;;0.20;0.05;;;;;;;23.16;nan;101841.69;5052438;28;20363;-64
2021/04/24 10:36:38;;;;;;;0.15;0.00;;;;;;;23.23;nan;101831.72;5051366;28;20024;-66
2021/04/24 10:39:10;;;;;;;0.32;0.10;;;;;;;23.02;nan;101846.91;5052184;28;20053;-65
2021/04/24 10:41:45;;;;;;;0.08;0.08;;;;;;;22.97;nan;101853.94;5052212;28;20457;-65
2021/04/24 10:44:17;;;;;;;0.68;0.10;;;;;;;23.01;nan;101849.78;5052159;28;20032;-64
2021/04/24 10:46:50;;;;;;;0.70;0.25;;;;;;;22.99;nan;101858.19;5052225;28;20029;-65
2021/04/24 10:49:23;;;;;;;0.13;0.00;;;;;;;23.06;nan;101859.22;5051831;28;20025;-65
2021/04/24 10:51:57;;;;;;;0.50;0.13;;;;;;;23.08;nan;101868.13;5052273;28;20021;-64
2021/04/24 10:54:28;;;;;;;0.25;0.00;;;;;;;23.35;nan;101868.69;5051979;28;20104;-65
2021/04/24 10:56:54;;;;;;;0.22;0.10;;;;;;;23.08;nan;101879.09;5052025;28;20075;-63
2021/04/24 10:59:21;;;;;;;0.10;0.00;;;;;;;23.10;nan;101871.53;5051881;28;20108;-65
2021/04/24 11:02:07;;;;;;;0.20;0.00;;;;;;;23.15;nan;101890.19;5034206;28;20021;-65
2021/04/24 11:04:44;;;;;;;0.20;0.03;;;;;;;23.10;nan;101877.03;5034034;28;20530;-64
2021/04/24 11:07:25;;;;;;;0.20;0.10;;;;;;;23.02;nan;101868.84;5051883;28;20025;-64
2021/04/24 11:10:12;;;;;;;0.20;0.10;;;;;;;23.09;nan;101879.94;5052041;28;20104;-65
2021/04/24 11:12:42;;;;;;;0.70;0.10;;;;;;;23.07;nan;101871.91;5034103;28;20028;-65
2021/04/24 11:15:09;;;;;;;0.17;0.03;;;;;;;23.05;nan;101879.47;5034206;28;20025;-65
2021/04/24 11:17:37;;;;;;;0.20;0.10;;;;;;;23.07;nan;101871.03;5052428;28;20017;-66
2021/04/24 11:20:04;;;;;;;0.30;0.10;;;;;;;22.96;nan;101875.03;5052250;28;20057;-65
2021/04/24 11:22:36;;;;;;;1.10;0.10;;;;;;;23.03;nan;101870.56;5051668;28;20044;-65
2021/04/24 11:25:29;;;;;;;0.85;0.20;;;;;;;23.02;nan;101874.34;5052142;28;20484;-65
2021/04/24 11:28:13;;;;;;;0.55;0.05;;;;;;;23.10;nan;101873.44;5051794;28;20342;-65
2021/04/24 11:31:02;;;;;;;1.45;0.10;;;;;;;23.06;nan;101869.34;5051652;28;20029;-65
2021/04/24 11:33:47;;;;;;;0.10;0.10;;;;;;;23.02;nan;101892.69;5051567;28;20451;-64
2021/04/24 11:36:25;;;;;;;0.30;0.10;;;;;;;22.96;nan;101880.50;5051589;28;20029;-65
2021/04/24 11:38:53;;;;;;;0.82;0.10;;;;;;;23.11;nan;101878.72;5051755;28;20392;-64
2021/04/24 11:41:40;;;;;;;0.10;0.00;;;;;;;23.00;nan;101873.63;5051245;28;20498;-64
2021/04/24 11:44:08;;;;;;;1.95;0.20;;;;;;;23.18;nan;101880.75;5051650;28;20025;-64